sensor_id;sensor_type;location;lat;lon;timestamp;P1;durP1;ratioP1;P2;durP2;ratioP2
77214;SDS011;66210;53.282;9.864;2024-02-28T00:01:28;17.65;;;11.75;;
77214;SDS011;66210;53.282;9.864;2024-02-28T00:03:55;18.50;;;11.52;;
77214;SDS011;66210;53.282;9.864;2024-02-28T00:06:21;21.20;;;11.45;;
77214;SDS011;66210;53.282;9.864;2024-02-28T00:08:48;15.55;;;10.48;;
77214;SDS011;66210;53.282;9.864;2024-02-28T00:11:17;17.25;;;11.45;;
77214;SDS011;66210;53.282;9.864;2024-02-28T00:13:44;15.35;;;9.63;;
77214;SDS011;66210;53.282;9.864;2024-02-28T00:16:10;17.17;;;11.20;;
77214;SDS011;66210;53.282;9.864;2024-02-28T00:18:38;19.08;;;11.52;;
77214;SDS011;66210;53.282;9.864;2024-02-28T00:21:04;17.02;;;10.88;;
77214;SDS011;66210;53.282;9.864;2024-02-28T00:23:31;20.08;;;12.80;;
77214;SDS011;66210;53.282;9.864;2024-02-28T00:25:58;21.85;;;12.77;;
77214;SDS011;66210;53.282;9.864;2024-02-28T00:28:25;20.67;;;12.98;;
77214;SDS011;66210;53.282;9.864;2024-02-28T00:30:51;19.30;;;11.95;;
77214;SDS011;66210;53.282;9.864;2024-02-28T00:33:18;22.67;;;13.20;;
77214;SDS011;66210;53.282;9.864;2024-02-28T00:35:44;19.65;;;12.38;;
77214;SDS011;66210;53.282;9.864;2024-02-28T00:38:11;20.08;;;12.32;;
77214;SDS011;66210;53.282;9.864;2024-02-28T00:40:38;19.10;;;12.07;;
77214;SDS011;66210;53.282;9.864;2024-02-28T00:43:04;18.33;;;12.00;;
77214;SDS011;66210;53.282;9.864;2024-02-28T00:45:31;18.13;;;11.30;;
77214;SDS011;66210;53.282;9.864;2024-02-28T00:47:58;18.40;;;11.80;;
77214;SDS011;66210;53.282;9.864;2024-02-28T00:50:24;21.35;;;11.43;;
77214;SDS011;66210;53.282;9.864;2024-02-28T00:52:51;16.85;;;10.68;;
77214;SDS011;66210;53.282;9.864;2024-02-28T00:55:17;17.33;;;11.27;;
77214;SDS011;66210;53.282;9.864;2024-02-28T00:57:45;18.35;;;11.38;;
77214;SDS011;66210;53.282;9.864;2024-02-28T01:00:11;16.17;;;10.25;;
77214;SDS011;66210;53.282;9.864;2024-02-28T01:02:39;17.33;;;10.45;;
77214;SDS011;66210;53.282;9.864;2024-02-28T01:05:08;16.50;;;10.52;;
77214;SDS011;66210;53.282;9.864;2024-02-28T01:07:35;15.70;;;10.18;;
77214;SDS011;66210;53.282;9.864;2024-02-28T01:10:02;16.05;;;10.13;;
77214;SDS011;66210;53.282;9.864;2024-02-28T01:12:29;15.70;;;10.55;;
77214;SDS011;66210;53.282;9.864;2024-02-28T01:14:56;15.98;;;9.32;;
77214;SDS011;66210;53.282;9.864;2024-02-28T01:17:22;16.67;;;10.77;;
77214;SDS011;66210;53.282;9.864;2024-02-28T01:19:49;16.88;;;10.43;;
77214;SDS011;66210;53.282;9.864;2024-02-28T01:22:16;16.45;;;9.25;;
77214;SDS011;66210;53.282;9.864;2024-02-28T01:24:42;16.50;;;10.48;;
77214;SDS011;66210;53.282;9.864;2024-02-28T01:27:09;16.98;;;10.10;;
77214;SDS011;66210;53.282;9.864;2024-02-28T01:29:36;14.98;;;9.55;;
77214;SDS011;66210;53.282;9.864;2024-02-28T01:32:02;16.58;;;9.82;;
77214;SDS011;66210;53.282;9.864;2024-02-28T01:34:29;17.55;;;10.38;;
77214;SDS011;66210;53.282;9.864;2024-02-28T01:36:55;16.65;;;10.35;;
77214;SDS011;66210;53.282;9.864;2024-02-28T01:39:22;18.00;;;11.05;;
77214;SDS011;66210;53.282;9.864;2024-02-28T01:41:52;18.50;;;10.93;;
77214;SDS011;66210;53.282;9.864;2024-02-28T01:44:20;20.80;;;11.57;;
77214;SDS011;66210;53.282;9.864;2024-02-28T01:46:47;17.23;;;10.55;;
77214;SDS011;66210;53.282;9.864;2024-02-28T01:49:13;15.73;;;9.50;;
77214;SDS011;66210;53.282;9.864;2024-02-28T01:51:41;15.13;;;9.68;;
77214;SDS011;66210;53.282;9.864;2024-02-28T01:54:08;15.63;;;10.35;;
77214;SDS011;66210;53.282;9.864;2024-02-28T01:56:34;13.70;;;9.00;;
77214;SDS011;66210;53.282;9.864;2024-02-28T01:59:03;18.55;;;10.25;;
77214;SDS011;66210;53.282;9.864;2024-02-28T02:01:30;19.75;;;10.60;;
77214;SDS011;66210;53.282;9.864;2024-02-28T02:03:56;15.73;;;9.50;;
77214;SDS011;66210;53.282;9.864;2024-02-28T02:06:23;17.17;;;10.30;;
77214;SDS011;66210;53.282;9.864;2024-02-28T02:08:50;15.88;;;9.52;;
77214;SDS011;66210;53.282;9.864;2024-02-28T02:11:17;16.35;;;10.38;;
77214;SDS011;66210;53.282;9.864;2024-02-28T02:13:52;16.17;;;8.77;;
77214;SDS011;66210;53.282;9.864;2024-02-28T02:16:19;18.17;;;10.63;;
77214;SDS011;66210;53.282;9.864;2024-02-28T02:18:52;15.10;;;9.00;;
77214;SDS011;66210;53.282;9.864;2024-02-28T02:21:21;15.43;;;9.73;;
77214;SDS011;66210;53.282;9.864;2024-02-28T02:23:50;14.40;;;9.00;;
77214;SDS011;66210;53.282;9.864;2024-02-28T02:26:17;16.58;;;9.80;;
77214;SDS011;66210;53.282;9.864;2024-02-28T02:28:44;16.10;;;9.52;;
77214;SDS011;66210;53.282;9.864;2024-02-28T02:31:11;14.20;;;8.82;;
77214;SDS011;66210;53.282;9.864;2024-02-28T02:33:39;15.52;;;8.90;;
77214;SDS011;66210;53.282;9.864;2024-02-28T02:36:06;16.40;;;10.32;;
77214;SDS011;66210;53.282;9.864;2024-02-28T02:38:33;14.55;;;8.65;;
77214;SDS011;66210;53.282;9.864;2024-02-28T02:41:00;15.73;;;9.40;;
77214;SDS011;66210;53.282;9.864;2024-02-28T02:43:26;13.57;;;8.57;;
77214;SDS011;66210;53.282;9.864;2024-02-28T02:45:53;15.13;;;9.70;;
77214;SDS011;66210;53.282;9.864;2024-02-28T02:48:20;13.88;;;8.43;;
77214;SDS011;66210;53.282;9.864;2024-02-28T02:50:47;15.57;;;9.02;;
77214;SDS011;66210;53.282;9.864;2024-02-28T02:53:13;14.18;;;8.82;;
77214;SDS011;66210;53.282;9.864;2024-02-28T02:55:40;13.40;;;8.38;;
77214;SDS011;66210;53.282;9.864;2024-02-28T02:58:07;13.80;;;8.48;;
77214;SDS011;66210;53.282;9.864;2024-02-28T03:00:34;13.55;;;8.13;;
77214;SDS011;66210;53.282;9.864;2024-02-28T03:03:00;15.07;;;9.00;;
77214;SDS011;66210;53.282;9.864;2024-02-28T03:05:27;12.15;;;7.50;;
77214;SDS011;66210;53.282;9.864;2024-02-28T03:07:54;12.23;;;7.70;;
77214;SDS011;66210;53.282;9.864;2024-02-28T03:10:20;12.23;;;7.85;;
77214;SDS011;66210;53.282;9.864;2024-02-28T03:12:47;14.13;;;8.57;;
77214;SDS011;66210;53.282;9.864;2024-02-28T03:15:14;11.80;;;7.57;;
77214;SDS011;66210;53.282;9.864;2024-02-28T03:17:41;16.30;;;8.15;;
77214;SDS011;66210;53.282;9.864;2024-02-28T03:20:08;11.57;;;7.75;;
77214;SDS011;66210;53.282;9.864;2024-02-28T03:22:36;13.85;;;7.85;;
77214;SDS011;66210;53.282;9.864;2024-02-28T03:25:02;12.57;;;8.40;;
77214;SDS011;66210;53.282;9.864;2024-02-28T03:27:29;15.57;;;9.02;;
77214;SDS011;66210;53.282;9.864;2024-02-28T03:29:56;12.80;;;8.70;;
77214;SDS011;66210;53.282;9.864;2024-02-28T03:32:23;13.60;;;8.82;;
77214;SDS011;66210;53.282;9.864;2024-02-28T03:34:50;15.60;;;7.55;;
77214;SDS011;66210;53.282;9.864;2024-02-28T03:37:16;13.43;;;8.27;;
77214;SDS011;66210;53.282;9.864;2024-02-28T03:39:43;11.38;;;6.57;;
77214;SDS011;66210;53.282;9.864;2024-02-28T03:42:10;11.82;;;7.35;;
77214;SDS011;66210;53.282;9.864;2024-02-28T03:44:37;13.15;;;7.60;;
77214;SDS011;66210;53.282;9.864;2024-02-28T03:47:03;12.38;;;7.93;;
77214;SDS011;66210;53.282;9.864;2024-02-28T03:49:30;11.77;;;7.40;;
77214;SDS011;66210;53.282;9.864;2024-02-28T03:51:57;12.27;;;7.20;;
77214;SDS011;66210;53.282;9.864;2024-02-28T03:54:24;11.77;;;6.82;;
77214;SDS011;66210;53.282;9.864;2024-02-28T03:56:51;14.18;;;8.13;;
77214;SDS011;66210;53.282;9.864;2024-02-28T03:59:17;11.98;;;7.35;;
77214;SDS011;66210;53.282;9.864;2024-02-28T04:01:44;12.52;;;7.55;;
77214;SDS011;66210;53.282;9.864;2024-02-28T04:04:11;11.13;;;6.95;;
77214;SDS011;66210;53.282;9.864;2024-02-28T04:06:38;12.73;;;6.85;;
77214;SDS011;66210;53.282;9.864;2024-02-28T04:09:05;9.55;;;6.57;;
77214;SDS011;66210;53.282;9.864;2024-02-28T04:11:31;10.85;;;6.72;;
77214;SDS011;66210;53.282;9.864;2024-02-28T04:13:58;9.57;;;6.60;;
77214;SDS011;66210;53.282;9.864;2024-02-28T04:16:25;9.85;;;6.25;;
77214;SDS011;66210;53.282;9.864;2024-02-28T04:18:51;11.85;;;7.50;;
77214;SDS011;66210;53.282;9.864;2024-02-28T04:21:18;11.65;;;7.05;;
77214;SDS011;66210;53.282;9.864;2024-02-28T04:23:45;10.25;;;7.22;;
77214;SDS011;66210;53.282;9.864;2024-02-28T04:26:12;11.10;;;7.05;;
77214;SDS011;66210;53.282;9.864;2024-02-28T04:28:39;14.30;;;7.32;;
77214;SDS011;66210;53.282;9.864;2024-02-28T04:31:06;10.18;;;7.18;;
77214;SDS011;66210;53.282;9.864;2024-02-28T04:33:33;9.82;;;7.18;;
77214;SDS011;66210;53.282;9.864;2024-02-28T04:36:00;14.23;;;7.47;;
77214;SDS011;66210;53.282;9.864;2024-02-28T04:38:26;11.20;;;6.82;;
77214;SDS011;66210;53.282;9.864;2024-02-28T04:40:53;10.52;;;7.15;;
77214;SDS011;66210;53.282;9.864;2024-02-28T04:43:19;9.25;;;6.35;;
77214;SDS011;66210;53.282;9.864;2024-02-28T04:45:46;8.98;;;6.10;;
77214;SDS011;66210;53.282;9.864;2024-02-28T04:48:13;11.10;;;6.57;;
77214;SDS011;66210;53.282;9.864;2024-02-28T04:50:40;9.50;;;6.47;;
77214;SDS011;66210;53.282;9.864;2024-02-28T04:53:07;10.65;;;6.63;;
77214;SDS011;66210;53.282;9.864;2024-02-28T04:55:33;12.65;;;7.65;;
77214;SDS011;66210;53.282;9.864;2024-02-28T04:58:00;11.02;;;6.90;;
77214;SDS011;66210;53.282;9.864;2024-02-28T05:00:27;15.00;;;8.27;;
77214;SDS011;66210;53.282;9.864;2024-02-28T05:02:53;12.55;;;7.63;;
77214;SDS011;66210;53.282;9.864;2024-02-28T05:05:20;12.23;;;6.97;;
77214;SDS011;66210;53.282;9.864;2024-02-28T05:07:46;12.40;;;7.72;;
77214;SDS011;66210;53.282;9.864;2024-02-28T05:10:13;10.82;;;6.90;;
77214;SDS011;66210;53.282;9.864;2024-02-28T05:12:40;11.75;;;7.55;;
77214;SDS011;66210;53.282;9.864;2024-02-28T05:15:06;12.15;;;7.45;;
77214;SDS011;66210;53.282;9.864;2024-02-28T05:17:33;13.98;;;7.50;;
77214;SDS011;66210;53.282;9.864;2024-02-28T05:20:00;10.88;;;6.72;;
77214;SDS011;66210;53.282;9.864;2024-02-28T05:22:26;12.32;;;7.43;;
77214;SDS011;66210;53.282;9.864;2024-02-28T05:24:53;16.23;;;7.53;;
77214;SDS011;66210;53.282;9.864;2024-02-28T05:27:20;14.13;;;7.47;;
77214;SDS011;66210;53.282;9.864;2024-02-28T05:29:47;12.98;;;7.68;;
77214;SDS011;66210;53.282;9.864;2024-02-28T05:32:14;13.07;;;7.88;;
77214;SDS011;66210;53.282;9.864;2024-02-28T05:34:40;14.95;;;8.25;;
77214;SDS011;66210;53.282;9.864;2024-02-28T05:37:07;15.95;;;8.23;;
77214;SDS011;66210;53.282;9.864;2024-02-28T05:39:34;13.68;;;7.45;;
77214;SDS011;66210;53.282;9.864;2024-02-28T05:42:01;10.70;;;6.97;;
77214;SDS011;66210;53.282;9.864;2024-02-28T05:44:27;11.30;;;6.70;;
77214;SDS011;66210;53.282;9.864;2024-02-28T05:46:54;14.20;;;6.90;;
77214;SDS011;66210;53.282;9.864;2024-02-28T05:49:23;10.63;;;6.40;;
77214;SDS011;66210;53.282;9.864;2024-02-28T05:51:50;9.18;;;6.57;;
77214;SDS011;66210;53.282;9.864;2024-02-28T05:54:16;11.27;;;6.57;;
77214;SDS011;66210;53.282;9.864;2024-02-28T05:56:43;9.77;;;5.85;;
77214;SDS011;66210;53.282;9.864;2024-02-28T05:59:10;8.45;;;5.85;;
77214;SDS011;66210;53.282;9.864;2024-02-28T06:01:36;9.65;;;6.00;;
77214;SDS011;66210;53.282;9.864;2024-02-28T06:04:04;10.15;;;5.72;;
77214;SDS011;66210;53.282;9.864;2024-02-28T06:06:31;11.35;;;6.13;;
77214;SDS011;66210;53.282;9.864;2024-02-28T06:08:57;9.00;;;5.78;;
77214;SDS011;66210;53.282;9.864;2024-02-28T06:11:24;8.93;;;5.32;;
77214;SDS011;66210;53.282;9.864;2024-02-28T06:13:51;10.43;;;6.32;;
77214;SDS011;66210;53.282;9.864;2024-02-28T06:16:17;13.10;;;6.00;;
77214;SDS011;66210;53.282;9.864;2024-02-28T06:18:45;11.48;;;6.07;;
77214;SDS011;66210;53.282;9.864;2024-02-28T06:21:12;12.93;;;7.35;;
77214;SDS011;66210;53.282;9.864;2024-02-28T06:23:40;11.02;;;6.70;;
77214;SDS011;66210;53.282;9.864;2024-02-28T06:26:06;12.00;;;6.47;;
77214;SDS011;66210;53.282;9.864;2024-02-28T06:28:33;11.90;;;6.78;;
77214;SDS011;66210;53.282;9.864;2024-02-28T06:31:00;10.77;;;6.28;;
77214;SDS011;66210;53.282;9.864;2024-02-28T06:33:26;12.80;;;7.65;;
77214;SDS011;66210;53.282;9.864;2024-02-28T06:35:53;20.98;;;7.78;;
77214;SDS011;66210;53.282;9.864;2024-02-28T06:38:20;17.27;;;6.75;;
77214;SDS011;66210;53.282;9.864;2024-02-28T06:40:46;20.77;;;7.43;;
77214;SDS011;66210;53.282;9.864;2024-02-28T06:43:13;13.15;;;7.90;;
77214;SDS011;66210;53.282;9.864;2024-02-28T06:45:40;16.00;;;7.90;;
77214;SDS011;66210;53.282;9.864;2024-02-28T06:48:07;13.50;;;7.15;;
77214;SDS011;66210;53.282;9.864;2024-02-28T06:50:34;16.25;;;7.30;;
77214;SDS011;66210;53.282;9.864;2024-02-28T06:53:01;15.30;;;8.43;;
77214;SDS011;66210;53.282;9.864;2024-02-28T06:55:27;16.65;;;7.88;;
77214;SDS011;66210;53.282;9.864;2024-02-28T06:57:54;17.52;;;8.30;;
77214;SDS011;66210;53.282;9.864;2024-02-28T07:00:21;15.10;;;8.38;;
77214;SDS011;66210;53.282;9.864;2024-02-28T07:02:48;15.40;;;8.60;;
77214;SDS011;66210;53.282;9.864;2024-02-28T07:05:14;16.13;;;8.35;;
77214;SDS011;66210;53.282;9.864;2024-02-28T07:07:41;12.70;;;7.82;;
77214;SDS011;66210;53.282;9.864;2024-02-28T07:10:07;16.90;;;9.38;;
77214;SDS011;66210;53.282;9.864;2024-02-28T07:12:35;17.13;;;8.32;;
77214;SDS011;66210;53.282;9.864;2024-02-28T07:15:02;15.48;;;8.02;;
77214;SDS011;66210;53.282;9.864;2024-02-28T07:17:29;15.18;;;8.52;;
77214;SDS011;66210;53.282;9.864;2024-02-28T07:19:55;14.57;;;8.95;;
77214;SDS011;66210;53.282;9.864;2024-02-28T07:22:22;16.67;;;9.05;;
77214;SDS011;66210;53.282;9.864;2024-02-28T07:24:48;15.25;;;8.60;;
77214;SDS011;66210;53.282;9.864;2024-02-28T07:27:15;16.75;;;9.27;;
77214;SDS011;66210;53.282;9.864;2024-02-28T07:29:43;15.15;;;9.13;;
77214;SDS011;66210;53.282;9.864;2024-02-28T07:32:10;17.08;;;9.30;;
77214;SDS011;66210;53.282;9.864;2024-02-28T07:34:36;19.05;;;9.98;;
77214;SDS011;66210;53.282;9.864;2024-02-28T07:37:03;18.55;;;9.93;;
77214;SDS011;66210;53.282;9.864;2024-02-28T07:39:30;17.33;;;10.02;;
77214;SDS011;66210;53.282;9.864;2024-02-28T07:41:57;17.98;;;9.82;;
77214;SDS011;66210;53.282;9.864;2024-02-28T07:44:23;17.63;;;9.95;;
77214;SDS011;66210;53.282;9.864;2024-02-28T07:46:50;18.25;;;9.90;;
77214;SDS011;66210;53.282;9.864;2024-02-28T07:49:17;17.67;;;10.07;;
77214;SDS011;66210;53.282;9.864;2024-02-28T07:51:44;21.00;;;11.52;;
77214;SDS011;66210;53.282;9.864;2024-02-28T07:54:11;19.48;;;11.40;;
77214;SDS011;66210;53.282;9.864;2024-02-28T07:56:38;20.25;;;11.32;;
77214;SDS011;66210;53.282;9.864;2024-02-28T07:59:05;22.08;;;12.52;;
77214;SDS011;66210;53.282;9.864;2024-02-28T08:01:31;21.40;;;12.57;;
77214;SDS011;66210;53.282;9.864;2024-02-28T08:03:58;22.85;;;12.15;;
77214;SDS011;66210;53.282;9.864;2024-02-28T08:06:26;26.65;;;14.18;;
77214;SDS011;66210;53.282;9.864;2024-02-28T08:08:53;23.80;;;13.57;;
77214;SDS011;66210;53.282;9.864;2024-02-28T08:11:19;25.27;;;12.95;;
77214;SDS011;66210;53.282;9.864;2024-02-28T08:13:46;28.65;;;14.73;;
77214;SDS011;66210;53.282;9.864;2024-02-28T08:16:12;30.67;;;15.18;;
77214;SDS011;66210;53.282;9.864;2024-02-28T08:18:39;25.27;;;13.85;;
77214;SDS011;66210;53.282;9.864;2024-02-28T08:21:06;28.77;;;14.77;;
77214;SDS011;66210;53.282;9.864;2024-02-28T08:23:33;27.08;;;14.68;;
77214;SDS011;66210;53.282;9.864;2024-02-28T08:26:00;30.73;;;16.95;;
77214;SDS011;66210;53.282;9.864;2024-02-28T08:28:26;30.08;;;14.32;;
77214;SDS011;66210;53.282;9.864;2024-02-28T08:30:53;31.23;;;16.95;;
77214;SDS011;66210;53.282;9.864;2024-02-28T08:33:20;30.85;;;15.85;;
77214;SDS011;66210;53.282;9.864;2024-02-28T08:35:50;36.22;;;17.90;;
77214;SDS011;66210;53.282;9.864;2024-02-28T08:38:18;32.63;;;16.75;;
77214;SDS011;66210;53.282;9.864;2024-02-28T08:40:44;31.13;;;14.98;;
77214;SDS011;66210;53.282;9.864;2024-02-28T08:43:12;34.00;;;17.90;;
77214;SDS011;66210;53.282;9.864;2024-02-28T08:45:39;37.03;;;18.45;;
77214;SDS011;66210;53.282;9.864;2024-02-28T08:48:06;35.28;;;16.60;;
77214;SDS011;66210;53.282;9.864;2024-02-28T08:50:34;32.92;;;17.92;;
77214;SDS011;66210;53.282;9.864;2024-02-28T08:53:01;39.55;;;18.15;;
77214;SDS011;66210;53.282;9.864;2024-02-28T08:55:29;38.65;;;19.17;;
77214;SDS011;66210;53.282;9.864;2024-02-28T08:57:56;35.95;;;18.33;;
77214;SDS011;66210;53.282;9.864;2024-02-28T09:00:23;37.63;;;18.58;;
77214;SDS011;66210;53.282;9.864;2024-02-28T09:02:50;37.53;;;17.42;;
77214;SDS011;66210;53.282;9.864;2024-02-28T09:05:17;37.33;;;18.52;;
77214;SDS011;66210;53.282;9.864;2024-02-28T09:07:44;35.75;;;19.73;;
77214;SDS011;66210;53.282;9.864;2024-02-28T09:10:12;33.95;;;18.33;;
77214;SDS011;66210;53.282;9.864;2024-02-28T09:12:39;35.83;;;18.60;;
77214;SDS011;66210;53.282;9.864;2024-02-28T09:15:06;33.90;;;17.17;;
77214;SDS011;66210;53.282;9.864;2024-02-28T09:17:33;37.47;;;18.10;;
77214;SDS011;66210;53.282;9.864;2024-02-28T09:20:00;39.38;;;18.33;;
77214;SDS011;66210;53.282;9.864;2024-02-28T09:22:28;38.03;;;18.40;;
77214;SDS011;66210;53.282;9.864;2024-02-28T09:24:54;34.20;;;17.85;;
77214;SDS011;66210;53.282;9.864;2024-02-28T09:27:21;34.33;;;18.42;;
77214;SDS011;66210;53.282;9.864;2024-02-28T09:29:48;35.45;;;18.38;;
77214;SDS011;66210;53.282;9.864;2024-02-28T09:32:15;33.30;;;17.67;;
77214;SDS011;66210;53.282;9.864;2024-02-28T09:34:42;38.30;;;17.23;;
77214;SDS011;66210;53.282;9.864;2024-02-28T09:37:09;32.58;;;17.10;;
77214;SDS011;66210;53.282;9.864;2024-02-28T09:39:38;38.85;;;18.48;;
77214;SDS011;66210;53.282;9.864;2024-02-28T09:42:06;36.45;;;17.75;;
77214;SDS011;66210;53.282;9.864;2024-02-28T09:44:34;36.90;;;18.45;;
77214;SDS011;66210;53.282;9.864;2024-02-28T09:47:03;33.45;;;17.20;;
77214;SDS011;66210;53.282;9.864;2024-02-28T09:49:31;35.92;;;18.00;;
77214;SDS011;66210;53.282;9.864;2024-02-28T09:51:58;30.60;;;16.80;;
77214;SDS011;66210;53.282;9.864;2024-02-28T09:54:25;35.78;;;18.55;;
77214;SDS011;66210;53.282;9.864;2024-02-28T09:56:52;33.42;;;17.45;;
77214;SDS011;66210;53.282;9.864;2024-02-28T09:59:21;31.58;;;17.02;;
77214;SDS011;66210;53.282;9.864;2024-02-28T10:01:57;31.25;;;16.50;;
77214;SDS011;66210;53.282;9.864;2024-02-28T10:04:26;29.15;;;15.90;;
77214;SDS011;66210;53.282;9.864;2024-02-28T10:06:55;33.63;;;16.73;;
77214;SDS011;66210;53.282;9.864;2024-02-28T10:09:23;32.47;;;16.45;;
77214;SDS011;66210;53.282;9.864;2024-02-28T10:11:50;33.78;;;18.60;;
77214;SDS011;66210;53.282;9.864;2024-02-28T10:14:17;33.83;;;16.63;;
77214;SDS011;66210;53.282;9.864;2024-02-28T10:16:45;31.00;;;17.77;;
77214;SDS011;66210;53.282;9.864;2024-02-28T10:19:12;37.80;;;16.00;;
77214;SDS011;66210;53.282;9.864;2024-02-28T10:21:39;25.52;;;15.48;;
77214;SDS011;66210;53.282;9.864;2024-02-28T10:24:06;30.33;;;16.83;;
77214;SDS011;66210;53.282;9.864;2024-02-28T10:29:14;31.35;;;16.85;;
77214;SDS011;66210;53.282;9.864;2024-02-28T10:31:41;30.80;;;16.05;;
77214;SDS011;66210;53.282;9.864;2024-02-28T10:34:09;30.85;;;16.48;;
77214;SDS011;66210;53.282;9.864;2024-02-28T10:36:35;28.20;;;16.70;;
77214;SDS011;66210;53.282;9.864;2024-02-28T10:39:03;28.13;;;16.15;;
77214;SDS011;66210;53.282;9.864;2024-02-28T10:41:30;28.27;;;15.98;;
77214;SDS011;66210;53.282;9.864;2024-02-28T10:43:57;30.73;;;17.15;;
77214;SDS011;66210;53.282;9.864;2024-02-28T10:46:25;32.00;;;17.52;;
77214;SDS011;66210;53.282;9.864;2024-02-28T10:49:02;25.77;;;15.38;;
77214;SDS011;66210;53.282;9.864;2024-02-28T10:51:30;30.02;;;16.02;;
77214;SDS011;66210;53.282;9.864;2024-02-28T10:54:09;30.80;;;16.75;;
77214;SDS011;66210;53.282;9.864;2024-02-28T10:56:39;30.92;;;16.70;;
77214;SDS011;66210;53.282;9.864;2024-02-28T10:59:08;28.00;;;15.75;;
77214;SDS011;66210;53.282;9.864;2024-02-28T11:01:39;31.58;;;16.60;;
77214;SDS011;66210;53.282;9.864;2024-02-28T11:04:15;28.75;;;15.90;;
77214;SDS011;66210;53.282;9.864;2024-02-28T11:06:50;29.70;;;15.68;;
77214;SDS011;66210;53.282;9.864;2024-02-28T11:09:22;30.13;;;15.32;;
77214;SDS011;66210;53.282;9.864;2024-02-28T11:11:51;27.90;;;15.20;;
77214;SDS011;66210;53.282;9.864;2024-02-28T11:14:18;27.67;;;16.17;;
77214;SDS011;66210;53.282;9.864;2024-02-28T11:17:03;24.67;;;15.02;;
77214;SDS011;66210;53.282;9.864;2024-02-28T11:19:31;27.88;;;14.60;;
77214;SDS011;66210;53.282;9.864;2024-02-28T11:22:00;25.95;;;14.40;;
77214;SDS011;66210;53.282;9.864;2024-02-28T11:24:31;27.88;;;14.32;;
77214;SDS011;66210;53.282;9.864;2024-02-28T11:27:00;27.05;;;16.20;;
77214;SDS011;66210;53.282;9.864;2024-02-28T11:29:29;28.00;;;15.55;;
77214;SDS011;66210;53.282;9.864;2024-02-28T11:31:56;26.98;;;13.73;;
77214;SDS011;66210;53.282;9.864;2024-02-28T11:34:23;25.67;;;14.60;;
77214;SDS011;66210;53.282;9.864;2024-02-28T11:36:50;28.05;;;14.93;;
77214;SDS011;66210;53.282;9.864;2024-02-28T11:39:17;26.33;;;14.52;;
77214;SDS011;66210;53.282;9.864;2024-02-28T11:41:44;25.75;;;15.20;;
77214;SDS011;66210;53.282;9.864;2024-02-28T11:44:16;27.48;;;15.25;;
77214;SDS011;66210;53.282;9.864;2024-02-28T11:46:47;22.38;;;12.90;;
77214;SDS011;66210;53.282;9.864;2024-02-28T11:49:15;23.52;;;13.35;;
77214;SDS011;66210;53.282;9.864;2024-02-28T11:51:42;24.42;;;14.20;;
77214;SDS011;66210;53.282;9.864;2024-02-28T11:54:09;28.17;;;14.52;;
77214;SDS011;66210;53.282;9.864;2024-02-28T11:56:37;24.52;;;14.23;;
77214;SDS011;66210;53.282;9.864;2024-02-28T11:59:08;27.23;;;13.57;;
77214;SDS011;66210;53.282;9.864;2024-02-28T12:01:41;24.95;;;13.77;;
77214;SDS011;66210;53.282;9.864;2024-02-28T12:04:10;21.38;;;12.82;;
77214;SDS011;66210;53.282;9.864;2024-02-28T12:06:37;19.90;;;11.32;;
77214;SDS011;66210;53.282;9.864;2024-02-28T12:09:08;23.55;;;12.30;;
77214;SDS011;66210;53.282;9.864;2024-02-28T12:11:37;22.85;;;13.13;;
77214;SDS011;66210;53.282;9.864;2024-02-28T12:14:04;22.88;;;13.15;;
77214;SDS011;66210;53.282;9.864;2024-02-28T12:16:38;23.67;;;13.98;;
77214;SDS011;66210;53.282;9.864;2024-02-28T12:19:09;20.88;;;12.18;;
77214;SDS011;66210;53.282;9.864;2024-02-28T12:21:37;20.48;;;12.02;;
77214;SDS011;66210;53.282;9.864;2024-02-28T12:24:08;19.55;;;12.75;;
77214;SDS011;66210;53.282;9.864;2024-02-28T12:26:38;26.15;;;12.88;;
77214;SDS011;66210;53.282;9.864;2024-02-28T12:29:05;20.17;;;12.20;;
77214;SDS011;66210;53.282;9.864;2024-02-28T12:31:33;26.98;;;12.98;;
77214;SDS011;66210;53.282;9.864;2024-02-28T12:34:02;20.30;;;12.02;;
77214;SDS011;66210;53.282;9.864;2024-02-28T12:36:30;21.23;;;12.23;;
77214;SDS011;66210;53.282;9.864;2024-02-28T12:38:59;20.48;;;11.77;;
77214;SDS011;66210;53.282;9.864;2024-02-28T12:41:26;20.55;;;10.98;;
77214;SDS011;66210;53.282;9.864;2024-02-28T12:43:53;22.73;;;11.23;;
77214;SDS011;66210;53.282;9.864;2024-02-28T12:46:20;19.33;;;11.43;;
77214;SDS011;66210;53.282;9.864;2024-02-28T12:48:47;18.75;;;10.60;;
77214;SDS011;66210;53.282;9.864;2024-02-28T12:51:35;21.02;;;10.23;;
77214;SDS011;66210;53.282;9.864;2024-02-28T12:54:09;18.45;;;9.90;;
77214;SDS011;66210;53.282;9.864;2024-02-28T12:56:37;21.75;;;11.90;;
77214;SDS011;66210;53.282;9.864;2024-02-28T12:59:06;21.55;;;12.18;;
77214;SDS011;66210;53.282;9.864;2024-02-28T13:01:37;21.48;;;12.00;;
77214;SDS011;66210;53.282;9.864;2024-02-28T13:04:04;19.42;;;11.30;;
77214;SDS011;66210;53.282;9.864;2024-02-28T13:06:32;19.05;;;9.27;;
77214;SDS011;66210;53.282;9.864;2024-02-28T13:08:59;19.70;;;9.25;;
77214;SDS011;66210;53.282;9.864;2024-02-28T13:11:25;21.38;;;9.00;;
77214;SDS011;66210;53.282;9.864;2024-02-28T13:13:53;17.42;;;10.27;;
77214;SDS011;66210;53.282;9.864;2024-02-28T13:16:19;20.23;;;10.63;;
77214;SDS011;66210;53.282;9.864;2024-02-28T13:18:49;18.60;;;11.25;;
77214;SDS011;66210;53.282;9.864;2024-02-28T13:21:16;21.70;;;10.23;;
77214;SDS011;66210;53.282;9.864;2024-02-28T13:23:43;20.10;;;10.70;;
77214;SDS011;66210;53.282;9.864;2024-02-28T13:26:09;20.73;;;11.60;;
77214;SDS011;66210;53.282;9.864;2024-02-28T13:28:44;24.92;;;11.63;;
77214;SDS011;66210;53.282;9.864;2024-02-28T13:31:16;22.42;;;11.35;;
77214;SDS011;66210;53.282;9.864;2024-02-28T13:33:43;21.20;;;11.48;;
77214;SDS011;66210;53.282;9.864;2024-02-28T13:36:09;18.27;;;10.43;;
77214;SDS011;66210;53.282;9.864;2024-02-28T13:38:36;17.65;;;9.48;;
77214;SDS011;66210;53.282;9.864;2024-02-28T13:41:03;18.17;;;9.95;;
77214;SDS011;66210;53.282;9.864;2024-02-28T13:43:30;20.35;;;10.80;;
77214;SDS011;66210;53.282;9.864;2024-02-28T13:45:57;20.83;;;11.38;;
77214;SDS011;66210;53.282;9.864;2024-02-28T13:48:27;23.75;;;11.68;;
77214;SDS011;66210;53.282;9.864;2024-02-28T13:50:59;21.48;;;11.40;;
77214;SDS011;66210;53.282;9.864;2024-02-28T13:53:26;23.73;;;11.15;;
77214;SDS011;66210;53.282;9.864;2024-02-28T13:55:54;22.75;;;11.00;;
77214;SDS011;66210;53.282;9.864;2024-02-28T13:58:21;19.50;;;11.30;;
77214;SDS011;66210;53.282;9.864;2024-02-28T14:00:47;16.80;;;9.88;;
77214;SDS011;66210;53.282;9.864;2024-02-28T14:03:14;17.13;;;10.15;;
77214;SDS011;66210;53.282;9.864;2024-02-28T14:05:41;18.30;;;9.75;;
77214;SDS011;66210;53.282;9.864;2024-02-28T14:08:08;19.23;;;9.70;;
77214;SDS011;66210;53.282;9.864;2024-02-28T14:10:36;16.67;;;9.18;;
77214;SDS011;66210;53.282;9.864;2024-02-28T14:13:03;18.67;;;9.00;;
77214;SDS011;66210;53.282;9.864;2024-02-28T14:15:31;15.52;;;8.65;;
77214;SDS011;66210;53.282;9.864;2024-02-28T14:17:57;14.70;;;7.10;;
77214;SDS011;66210;53.282;9.864;2024-02-28T14:20:24;12.68;;;7.78;;
77214;SDS011;66210;53.282;9.864;2024-02-28T14:22:51;20.70;;;9.65;;
77214;SDS011;66210;53.282;9.864;2024-02-28T14:25:18;18.65;;;9.52;;
77214;SDS011;66210;53.282;9.864;2024-02-28T14:27:47;15.82;;;9.07;;
77214;SDS011;66210;53.282;9.864;2024-02-28T14:30:15;18.50;;;8.98;;
77214;SDS011;66210;53.282;9.864;2024-02-28T14:32:42;20.88;;;9.27;;